createdAt,value
2023-01-23T00:01:18.105Z,25.42
2023-01-23T00:03:45.458Z,28.67
2023-01-23T00:06:15.461Z,25.98
2023-01-23T00:08:44.509Z,26.40
2023-01-23T00:11:17.592Z,21.67
2023-01-23T00:13:45.430Z,29.30
2023-01-23T00:16:16.440Z,22.98
2023-01-23T00:18:44.076Z,22.67
2023-01-23T00:21:16.871Z,21.52
2023-01-23T00:23:46.021Z,26.63
2023-01-23T00:26:17.363Z,24.17
2023-01-23T00:28:45.510Z,24.55
2023-01-23T00:31:17.050Z,25.38
2023-01-23T00:33:45.334Z,22.75
2023-01-23T00:36:14.469Z,24.25
2023-01-23T00:38:42.472Z,27.33
2023-01-23T00:41:09.506Z,20.15
2023-01-23T00:43:36.623Z,32.58
2023-01-23T00:46:03.708Z,24.50
2023-01-23T00:48:31.437Z,22.98
2023-01-23T00:50:58.647Z,31.30
2023-01-23T00:53:25.821Z,25.55
2023-01-23T00:55:53.815Z,23.45
2023-01-23T00:58:20.928Z,24.85
2023-01-23T01:00:48.063Z,25.35
2023-01-23T01:03:15.086Z,26.48
2023-01-23T01:05:42.116Z,26.27
2023-01-23T01:08:09.687Z,25.75
2023-01-23T01:10:36.817Z,23.00
2023-01-23T01:13:03.941Z,26.67
2023-01-23T01:15:31.092Z,26.15
2023-01-23T01:17:59.713Z,27.58
2023-01-23T01:20:28.540Z,23.15
2023-01-23T01:22:58.398Z,27.73
2023-01-23T01:25:25.869Z,24.92
2023-01-23T01:27:52.886Z,26.05
2023-01-23T01:30:20.177Z,26.02
2023-01-23T01:32:48.712Z,22.55
2023-01-23T01:35:15.790Z,25.13
2023-01-23T01:37:42.757Z,25.80
2023-01-23T01:40:17.592Z,24.73
2023-01-23T01:42:57.968Z,31.38
2023-01-23T01:45:56.855Z,27.00
2023-01-23T01:48:27.367Z,25.13
2023-01-23T01:50:54.912Z,28.38
2023-01-23T01:53:26.103Z,27.15
2023-01-23T01:55:54.103Z,27.73
2023-01-23T01:58:22.145Z,29.73
2023-01-23T02:00:49.297Z,30.85
2023-01-23T02:03:17.924Z,24.48
2023-01-23T02:05:48.544Z,28.70
2023-01-23T02:08:38.495Z,25.20
2023-01-23T02:11:06.466Z,30.58
2023-01-23T02:13:39.854Z,29.38
2023-01-23T02:16:10.380Z,23.17
2023-01-23T02:18:42.785Z,27.80
2023-01-23T02:21:11.165Z,23.33
2023-01-23T02:24:05.051Z,23.60
2023-01-23T02:26:38.187Z,29.85
2023-01-23T02:29:06.623Z,24.63
2023-01-23T02:31:35.752Z,24.13
2023-01-23T02:34:03.442Z,29.10
2023-01-23T02:36:33.991Z,27.65
2023-01-23T02:39:14.451Z,28.20
2023-01-23T02:41:46.883Z,25.42
2023-01-23T02:44:20.085Z,21.92
2023-01-23T02:46:47.177Z,25.77
2023-01-23T02:49:14.317Z,24.45
2023-01-23T02:51:41.348Z,29.08
2023-01-23T02:54:09.027Z,25.08
2023-01-23T02:56:36.067Z,25.30
2023-01-23T02:59:21.574Z,23.00
2023-01-23T03:01:48.743Z,24.08
2023-01-23T03:04:15.780Z,26.80
2023-01-23T03:06:42.793Z,27.83
2023-01-23T03:09:12.492Z,26.00
2023-01-23T03:11:41.111Z,32.85
2023-01-23T03:14:11.558Z,23.83
2023-01-23T03:16:38.824Z,27.73
2023-01-23T03:19:09.173Z,26.77
2023-01-23T03:21:40.470Z,26.08
2023-01-23T03:24:09.277Z,26.30
2023-01-23T03:26:42.282Z,25.33
2023-01-23T03:29:36.933Z,27.60
2023-01-23T03:32:04.707Z,24.95
2023-01-23T03:34:32.221Z,30.52
2023-01-23T03:37:01.373Z,25.77
2023-01-23T03:39:47.076Z,34.05
2023-01-23T03:42:14.502Z,27.30
2023-01-23T03:44:41.534Z,25.75
2023-01-23T03:47:08.660Z,26.33
2023-01-23T03:49:35.721Z,29.13
2023-01-23T03:52:02.758Z,31.85
2023-01-23T03:54:30.014Z,32.10
2023-01-23T03:56:57.069Z,36.55
2023-01-23T03:59:24.174Z,26.27
2023-01-23T04:01:51.148Z,26.80
2023-01-23T04:04:18.176Z,28.95
2023-01-23T04:06:45.260Z,26.65
2023-01-23T04:09:13.095Z,30.27
2023-01-23T04:11:40.105Z,24.27
2023-01-23T04:14:07.146Z,26.83
2023-01-23T04:16:34.196Z,26.98
2023-01-23T04:19:01.249Z,31.70
2023-01-23T04:21:28.386Z,29.33
2023-01-23T04:23:55.389Z,31.33
2023-01-23T04:26:22.438Z,27.77
2023-01-23T04:28:49.444Z,26.88
2023-01-23T04:31:16.580Z,31.88
2023-01-23T04:33:43.700Z,29.23
2023-01-23T04:36:11.650Z,25.88
2023-01-23T04:38:38.725Z,28.20
2023-01-23T04:41:05.749Z,27.90
2023-01-23T04:43:32.806Z,26.73
2023-01-23T04:46:00.023Z,30.02
2023-01-23T04:48:27.665Z,30.77
2023-01-23T04:50:54.722Z,24.15
2023-01-23T04:53:21.830Z,25.90
2023-01-23T04:55:49.697Z,26.92
2023-01-23T04:58:17.843Z,26.10
2023-01-23T05:00:45.066Z,21.73
2023-01-23T05:03:12.082Z,22.55
2023-01-23T05:05:39.144Z,25.33
2023-01-23T05:08:06.519Z,24.08
2023-01-23T05:10:33.600Z,26.77
2023-01-23T05:13:00.666Z,29.42
2023-01-23T05:15:30.031Z,18.38
2023-01-23T05:17:58.628Z,22.55
2023-01-23T05:20:25.739Z,20.73
2023-01-23T05:22:52.897Z,19.92
2023-01-23T05:25:26.789Z,28.80
2023-01-23T05:27:54.552Z,20.60
2023-01-23T05:30:22.956Z,21.27
2023-01-23T05:32:50.355Z,19.13
2023-01-23T05:35:17.506Z,24.38
2023-01-23T05:37:48.467Z,24.30
2023-01-23T05:40:15.533Z,21.30
2023-01-23T05:42:42.628Z,24.25
2023-01-23T05:45:10.069Z,21.55
2023-01-23T05:47:38.290Z,22.67
2023-01-23T05:50:06.459Z,22.23
2023-01-23T05:52:33.634Z,17.33
2023-01-23T05:55:00.707Z,16.40
2023-01-23T05:57:27.719Z,16.10
2023-01-23T05:59:54.790Z,16.63
2023-01-23T06:02:21.836Z,19.30
2023-01-23T06:04:49.246Z,17.77
2023-01-23T06:07:17.875Z,23.13
2023-01-23T06:09:45.096Z,17.73
2023-01-23T06:12:12.648Z,27.35
2023-01-23T06:14:40.008Z,23.67
2023-01-23T06:17:07.941Z,18.98
2023-01-23T06:19:35.028Z,20.40
2023-01-23T06:22:02.056Z,54.03
2023-01-23T06:24:29.094Z,39.15
2023-01-23T06:26:56.227Z,20.40
2023-01-23T06:29:23.425Z,15.77
2023-01-23T06:31:50.639Z,16.88
2023-01-23T06:34:17.835Z,17.30
2023-01-23T06:36:46.345Z,15.52
2023-01-23T06:39:15.649Z,16.05
2023-01-23T06:41:43.277Z,15.90
2023-01-23T06:44:10.947Z,17.42
2023-01-23T06:46:38.138Z,19.65
2023-01-23T06:49:06.362Z,22.55
2023-01-23T06:51:34.652Z,16.35
2023-01-23T06:54:01.675Z,19.17
2023-01-23T06:56:28.757Z,19.83
2023-01-23T06:58:55.919Z,21.75
2023-01-23T07:01:24.146Z,20.60
2023-01-23T07:03:51.274Z,23.50
2023-01-23T07:06:18.782Z,19.35
2023-01-23T07:08:45.857Z,18.88
2023-01-23T07:11:12.930Z,14.50
2023-01-23T07:13:40.043Z,18.17
2023-01-23T07:16:07.463Z,19.33
2023-01-23T07:18:34.847Z,20.33
2023-01-23T07:21:05.890Z,24.13
2023-01-23T07:23:34.517Z,20.30
2023-01-23T07:26:04.194Z,21.05
2023-01-23T07:28:31.311Z,27.77
2023-01-23T07:30:59.898Z,29.70
2023-01-23T07:33:27.129Z,32.88
2023-01-23T07:35:54.914Z,18.23
2023-01-23T07:38:26.164Z,22.40
2023-01-23T07:40:53.520Z,21.55
2023-01-23T07:43:20.596Z,23.95
2023-01-23T07:45:47.604Z,20.73
2023-01-23T07:48:14.696Z,24.77
2023-01-23T07:50:41.926Z,23.83
2023-01-23T07:53:08.988Z,22.40
2023-01-23T07:55:39.275Z,22.77
2023-01-23T07:58:06.392Z,22.10
2023-01-23T08:00:33.661Z,18.90
2023-01-23T08:03:01.124Z,19.83
2023-01-23T08:05:28.435Z,19.45
2023-01-23T08:08:11.408Z,22.38
2023-01-23T08:10:40.114Z,19.05
2023-01-23T08:13:07.186Z,20.05
2023-01-23T08:15:34.310Z,19.25
2023-01-23T08:18:01.328Z,25.30
2023-01-23T08:20:28.361Z,22.45
2023-01-23T08:22:56.590Z,17.95
2023-01-23T08:25:23.624Z,23.52
2023-01-23T08:27:50.646Z,22.92
2023-01-23T08:30:18.269Z,18.95
2023-01-23T08:32:45.451Z,15.52
2023-01-23T08:35:12.596Z,18.17
2023-01-23T08:37:41.492Z,23.15
2023-01-23T08:40:09.146Z,21.35
2023-01-23T08:42:36.200Z,20.17
2023-01-23T08:45:03.948Z,23.42
2023-01-23T08:47:36.752Z,20.65
2023-01-23T08:50:05.802Z,19.73
2023-01-23T08:52:35.797Z,20.63
2023-01-23T08:55:03.161Z,24.83
2023-01-23T08:57:30.210Z,17.77
2023-01-23T08:59:57.279Z,17.50
2023-01-23T09:02:24.377Z,23.85
2023-01-23T09:04:51.439Z,20.92
2023-01-23T09:07:18.594Z,20.35
2023-01-23T09:09:45.643Z,18.85
2023-01-23T09:12:12.713Z,14.50
2023-01-23T09:14:39.812Z,19.17
2023-01-23T09:17:06.868Z,23.92
2023-01-23T09:19:34.285Z,18.55
2023-01-23T09:22:01.457Z,17.02
2023-01-23T09:24:28.785Z,14.95
2023-01-23T09:26:55.831Z,22.08
2023-01-23T09:29:22.921Z,18.17
2023-01-23T09:31:49.985Z,21.23
2023-01-23T09:34:17.436Z,16.05
2023-01-23T09:36:44.663Z,19.75
2023-01-23T09:39:12.482Z,16.67
2023-01-23T09:41:40.924Z,16.50
2023-01-23T09:44:25.845Z,17.40
2023-01-23T09:47:02.794Z,15.23
2023-01-23T09:49:42.268Z,16.58
2023-01-23T09:52:21.685Z,17.92
2023-01-23T09:54:53.531Z,15.32
2023-01-23T09:57:33.250Z,15.07
2023-01-23T10:00:31.018Z,13.07
2023-01-23T10:03:00.676Z,12.20
2023-01-23T10:05:51.859Z,17.63
2023-01-23T10:08:46.631Z,16.35
2023-01-23T10:11:42.495Z,21.00
2023-01-23T10:14:20.976Z,14.63
2023-01-23T10:17:29.275Z,17.13
2023-01-23T10:20:19.156Z,15.75
2023-01-23T10:23:18.461Z,17.65
2023-01-23T10:25:45.741Z,16.52
2023-01-23T10:28:28.612Z,14.70
2023-01-23T10:31:01.722Z,21.00
2023-01-23T10:33:47.885Z,15.90
2023-01-23T10:36:23.627Z,17.50
2023-01-23T10:39:19.108Z,13.68
2023-01-23T10:41:51.202Z,15.13
2023-01-23T10:44:20.236Z,16.92
2023-01-23T10:46:57.194Z,18.77
2023-01-23T10:49:35.429Z,17.58
2023-01-23T10:52:03.883Z,17.42
2023-01-23T10:54:33.129Z,18.80
2023-01-23T10:57:02.119Z,17.85
2023-01-23T10:59:33.946Z,14.27
2023-01-23T11:02:04.183Z,13.30
2023-01-23T11:04:37.073Z,14.75
2023-01-23T11:07:26.110Z,14.48
2023-01-23T11:09:58.818Z,13.98
2023-01-23T11:12:34.940Z,13.75
2023-01-23T11:15:22.474Z,18.30
2023-01-23T11:17:51.725Z,15.15
2023-01-23T11:20:29.264Z,17.02
2023-01-23T11:23:07.274Z,14.40
2023-01-23T11:25:55.459Z,17.33
2023-01-23T11:28:25.841Z,13.68
2023-01-23T11:31:11.593Z,12.75
2023-01-23T11:33:42.961Z,14.48
2023-01-23T11:36:12.779Z,20.65
2023-01-23T11:38:52.733Z,11.05
2023-01-23T11:41:26.826Z,16.20
2023-01-23T11:43:53.944Z,17.85
2023-01-23T11:46:36.617Z,23.95
2023-01-23T11:49:49.325Z,15.27
2023-01-23T11:52:39.209Z,12.32
2023-01-23T11:55:27.562Z,16.85
2023-01-23T11:58:19.741Z,13.65
2023-01-23T12:01:02.743Z,20.45
2023-01-23T12:03:29.860Z,14.98
2023-01-23T12:06:20.652Z,18.65
2023-01-23T12:09:12.640Z,16.92
2023-01-23T12:11:58.372Z,18.17
2023-01-23T12:14:34.055Z,15.45
2023-01-23T12:17:45.753Z,15.13
2023-01-23T12:20:27.764Z,17.65
2023-01-23T12:23:12.864Z,18.50
2023-01-23T12:25:43.028Z,17.73
2023-01-23T12:28:47.257Z,13.90
2023-01-23T12:31:48.394Z,14.52
2023-01-23T12:34:24.733Z,18.35
2023-01-23T12:37:29.191Z,17.65
2023-01-23T12:40:34.069Z,19.45
2023-01-23T12:43:05.085Z,27.67
2023-01-23T12:45:33.407Z,18.48
2023-01-23T12:48:07.286Z,15.55
2023-01-23T12:50:41.019Z,15.60
2023-01-23T12:53:22.290Z,20.70
2023-01-23T12:56:11.268Z,17.20
2023-01-23T12:58:43.624Z,18.48
2023-01-23T13:01:14.617Z,18.98
2023-01-23T13:03:51.923Z,16.40
2023-01-23T13:06:25.720Z,14.88
2023-01-23T13:09:12.073Z,19.73
2023-01-23T13:12:21.957Z,15.30
2023-01-23T13:15:14.689Z,16.70
2023-01-23T13:18:12.666Z,42.90
2023-01-23T13:21:13.808Z,31.73
2023-01-23T13:23:40.920Z,46.67
2023-01-23T13:26:16.832Z,20.83
2023-01-23T13:28:46.412Z,22.13
2023-01-23T13:31:37.940Z,26.75
2023-01-23T13:34:16.949Z,16.05
2023-01-23T13:36:45.739Z,14.45
2023-01-23T13:39:19.883Z,21.02
2023-01-23T13:41:52.722Z,15.75
2023-01-23T13:44:40.621Z,17.17
2023-01-23T14:24:55.136Z,13.75
2023-01-23T14:27:30.466Z,13.05
2023-01-23T14:30:05.124Z,14.98
2023-01-23T14:32:33.997Z,21.30
2023-01-23T14:35:01.701Z,15.45
2023-01-23T14:37:30.872Z,14.40
2023-01-23T14:40:09.736Z,12.93
2023-01-23T14:42:40.558Z,22.60
2023-01-23T14:45:12.056Z,35.75
2023-01-23T14:47:48.870Z,19.67
2023-01-23T14:50:22.107Z,29.08
2023-01-23T14:53:00.800Z,19.60
2023-01-23T14:55:30.326Z,24.27
2023-01-23T14:58:00.672Z,35.60
2023-01-23T15:00:29.808Z,25.58
2023-01-23T15:02:56.962Z,19.42
2023-01-23T15:05:27.332Z,17.80
2023-01-23T15:07:58.949Z,17.80
2023-01-23T15:10:34.682Z,11.18
2023-01-23T15:13:10.326Z,17.42
2023-01-23T15:15:38.627Z,14.68
2023-01-23T15:18:21.182Z,16.10
2023-01-23T15:21:24.603Z,27.50
2023-01-23T15:24:21.722Z,14.75
2023-01-23T15:26:59.508Z,15.93
2023-01-23T15:29:27.909Z,13.25
2023-01-23T15:31:55.960Z,13.75
2023-01-23T15:34:34.692Z,15.10
2023-01-23T15:37:20.877Z,12.85
2023-01-23T15:39:55.692Z,20.98
2023-01-23T15:42:30.312Z,12.95
2023-01-23T15:45:01.516Z,11.52
2023-01-23T15:47:32.749Z,30.88
2023-01-23T15:50:03.262Z,18.77
2023-01-23T15:52:52.488Z,20.67
2023-01-23T15:55:22.240Z,21.10
2023-01-23T15:57:49.428Z,45.08
2023-01-23T16:00:27.722Z,30.83
2023-01-23T16:02:57.658Z,25.98
2023-01-23T16:05:37.071Z,38.92
2023-01-23T16:08:06.110Z,30.73
2023-01-23T16:10:39.289Z,21.73
2023-01-23T16:13:07.773Z,22.08
2023-01-23T16:15:37.524Z,23.40
2023-01-23T16:18:04.950Z,27.20
2023-01-23T16:20:38.343Z,33.75
2023-01-23T16:23:15.179Z,32.45
2023-01-23T16:25:45.658Z,32.63
2023-01-23T16:28:15.829Z,17.42
2023-01-23T16:30:43.022Z,13.23
2023-01-23T16:33:10.316Z,18.33
2023-01-23T16:35:37.770Z,11.77
2023-01-23T16:38:05.407Z,11.63
2023-01-23T16:40:32.965Z,15.82
2023-01-23T16:43:03.045Z,14.70
2023-01-23T16:45:32.952Z,10.23
2023-01-23T16:48:00.738Z,10.95
2023-01-23T16:50:40.004Z,12.60
2023-01-23T16:53:17.790Z,12.55
2023-01-23T16:55:46.031Z,10.80
2023-01-23T16:58:23.114Z,13.25
2023-01-23T17:00:51.732Z,12.23
2023-01-23T17:03:30.372Z,16.08
2023-01-23T17:05:58.081Z,15.90
2023-01-23T17:08:26.236Z,12.98
2023-01-23T17:10:58.822Z,18.08
2023-01-23T17:13:27.060Z,11.55
2023-01-23T17:15:56.305Z,19.80
2023-01-23T17:18:27.546Z,14.55
2023-01-23T17:20:55.281Z,18.40
2023-01-23T17:23:24.239Z,17.38
2023-01-23T17:26:00.406Z,11.93
2023-01-23T17:28:29.332Z,13.57
2023-01-23T17:31:00.808Z,21.48
2023-01-23T17:33:32.665Z,18.92
2023-01-23T17:36:03.515Z,21.95
2023-01-23T17:38:35.394Z,25.27
2023-01-23T17:41:05.086Z,32.50
2023-01-23T17:43:34.263Z,33.05
2023-01-23T17:46:02.348Z,27.05
2023-01-23T17:48:32.948Z,26.98
2023-01-23T17:51:00.964Z,21.17
2023-01-23T17:53:30.694Z,23.50
2023-01-23T17:55:59.897Z,18.30
2023-01-23T17:58:27.467Z,21.63
2023-01-23T18:00:56.383Z,19.25
2023-01-23T18:03:25.221Z,20.73
2023-01-23T18:05:53.046Z,21.60
2023-01-23T18:08:25.175Z,20.42
2023-01-23T18:10:55.595Z,31.20
2023-01-23T18:13:41.101Z,23.15
2023-01-23T18:16:26.182Z,15.38
2023-01-23T18:19:27.810Z,20.63
2023-01-23T18:22:00.037Z,21.50
2023-01-23T18:24:30.833Z,22.80
2023-01-23T18:27:10.436Z,28.48
2023-01-23T18:29:57.362Z,30.55
2023-01-23T18:32:54.228Z,43.60
2023-01-23T18:35:22.285Z,25.08
2023-01-23T18:38:15.479Z,15.77
2023-01-23T18:41:14.328Z,17.50
2023-01-23T18:43:52.421Z,16.42
2023-01-23T18:46:24.054Z,19.58
2023-01-23T18:48:52.292Z,19.17
2023-01-23T18:51:39.641Z,17.02
2023-01-23T18:54:25.663Z,16.90
2023-01-23T18:57:08.476Z,25.20
2023-01-23T19:00:02.923Z,19.20
2023-01-23T19:02:45.819Z,17.02
2023-01-23T19:05:19.984Z,16.00
2023-01-23T19:07:49.133Z,14.02
2023-01-23T19:10:22.600Z,19.15
2023-01-23T19:13:14.204Z,22.33
2023-01-23T19:16:03.569Z,18.15
2023-01-23T19:18:49.275Z,19.30
2023-01-23T19:21:24.296Z,16.77
2023-01-23T19:24:04.081Z,16.33
2023-01-23T19:26:36.069Z,17.95
2023-01-23T19:29:20.523Z,22.17
2023-01-23T19:32:03.710Z,25.88
2023-01-23T19:34:33.611Z,21.38
2023-01-23T19:37:01.647Z,25.17
2023-01-23T19:39:31.439Z,22.50
2023-01-23T19:42:00.359Z,23.05
2023-01-23T19:44:30.860Z,17.38
2023-01-23T19:46:58.953Z,21.08
2023-01-23T19:49:26.663Z,25.23
2023-01-23T19:51:54.591Z,26.33
2023-01-23T19:54:24.685Z,20.13
2023-01-23T19:56:53.029Z,16.30
2023-01-23T19:59:21.517Z,17.38
2023-01-23T20:01:53.487Z,20.85
2023-01-23T20:04:24.031Z,18.10
2023-01-23T20:06:53.207Z,16.35
2023-01-23T20:09:21.505Z,15.20
2023-01-23T20:11:50.238Z,19.33
2023-01-23T20:14:17.921Z,21.13
2023-01-23T20:16:45.921Z,17.95
2023-01-23T20:19:17.034Z,20.08
2023-01-23T20:21:48.448Z,19.17
2023-01-23T20:24:16.704Z,19.52
2023-01-23T20:26:44.935Z,24.35
2023-01-23T20:29:13.242Z,20.50
2023-01-23T20:31:40.741Z,19.05
2023-01-23T20:34:08.523Z,20.25
2023-01-23T20:36:36.694Z,21.63
2023-01-23T20:39:06.683Z,20.58
2023-01-23T20:41:36.813Z,22.27
2023-01-23T20:44:05.992Z,20.30
2023-01-23T20:46:33.802Z,23.73
2023-01-23T20:49:04.467Z,21.75
2023-01-23T20:51:32.396Z,19.92
2023-01-23T20:54:01.491Z,21.00
2023-01-23T20:56:30.411Z,22.70
2023-01-23T20:59:16.590Z,23.45
2023-01-23T21:02:04.062Z,24.88
2023-01-23T21:04:35.180Z,23.10
2023-01-23T21:07:04.833Z,23.58
2023-01-23T21:09:34.169Z,23.35
2023-01-23T21:12:01.385Z,29.42
2023-01-23T21:14:29.296Z,23.00
2023-01-23T21:16:56.911Z,23.90
2023-01-23T21:19:24.192Z,26.98
2023-01-23T21:21:53.044Z,18.17
2023-01-23T21:24:21.158Z,18.88
2023-01-23T21:26:49.578Z,25.63
2023-01-23T21:29:16.892Z,21.63
2023-01-23T21:31:44.280Z,24.48
2023-01-23T21:34:14.238Z,25.75
2023-01-23T21:36:42.617Z,28.65
2023-01-23T21:39:11.285Z,28.85
2023-01-23T21:41:38.356Z,24.42
2023-01-23T21:44:05.587Z,22.60
2023-01-23T21:46:32.758Z,25.92
2023-01-23T21:48:59.796Z,25.42
2023-01-23T21:51:27.929Z,18.52
2023-01-23T21:53:55.086Z,20.50
2023-01-23T21:56:23.444Z,22.35
2023-01-23T21:58:51.096Z,20.20
2023-01-23T22:01:33.514Z,18.48
2023-01-23T22:04:06.160Z,21.23
2023-01-23T22:06:34.555Z,19.98
2023-01-23T22:09:01.718Z,16.58
2023-01-23T22:11:29.393Z,15.45
2023-01-23T22:13:56.922Z,18.10
2023-01-23T22:16:40.119Z,21.27
2023-01-23T22:19:25.123Z,18.77
2023-01-23T22:21:54.607Z,18.60
2023-01-23T22:24:21.875Z,18.75
2023-01-23T22:26:49.476Z,14.35
2023-01-23T22:29:17.071Z,19.10
2023-01-23T22:31:44.286Z,15.30
2023-01-23T22:34:11.545Z,17.92
2023-01-23T22:36:38.681Z,13.77
2023-01-23T22:39:05.940Z,16.52
2023-01-23T22:41:33.104Z,17.35
2023-01-23T22:44:00.203Z,17.35
2023-01-23T22:46:27.607Z,16.05
2023-01-23T22:48:54.827Z,15.68
2023-01-23T22:51:27.104Z,14.77
2023-01-23T22:53:55.312Z,15.95
2023-01-23T22:56:23.599Z,16.75
2023-01-23T22:58:53.220Z,16.52
2023-01-23T23:01:23.204Z,17.27
2023-01-23T23:03:50.394Z,16.33
2023-01-23T23:06:18.617Z,16.67
2023-01-23T23:08:48.093Z,17.48
2023-01-23T23:11:25.509Z,18.90
2023-01-23T23:13:53.472Z,13.40
2023-01-23T23:16:31.743Z,15.73
2023-01-23T23:19:01.586Z,13.85
2023-01-23T23:21:31.957Z,16.95
2023-01-23T23:24:00.730Z,14.60
2023-01-23T23:26:30.153Z,12.25
2023-01-23T23:28:57.697Z,15.50
2023-01-23T23:31:25.607Z,18.17
2023-01-23T23:33:53.237Z,15.48
2023-01-23T23:36:20.382Z,16.05
2023-01-23T23:38:47.479Z,12.20
2023-01-23T23:41:16.949Z,14.05
2023-01-23T23:43:44.397Z,16.23
2023-01-23T23:46:12.930Z,13.68
2023-01-23T23:48:40.671Z,15.90
2023-01-23T23:51:11.417Z,15.32
2023-01-23T23:53:38.784Z,11.95
2023-01-23T23:56:06.988Z,12.70
2023-01-23T23:58:38.190Z,12.65
